Time;durP1;ratioP1;P1;durP2;ratioP2;P2;SDS_P1;SDS_P2;PMS_P1;PMS_P2;Temp;Humidity;BMP_temperature;BMP_pressure;BME280_temperature;BME280_humidity;BME280_pressure;Samples;Min_cycle;Max_cycle;Signal;HPM_P1;HPM_P2
2024/01/17 00:00:51;;;;;;;22.35;10.73;;;;;;;-0.21;77.33;98407.16;4973922;28;20054;-76
2024/01/17 00:03:17;;;;;;;22.25;11.10;;;;;;;-0.23;77.26;98403.75;4956355;28;20055;-76
2024/01/17 00:05:44;;;;;;;23.27;10.23;;;;;;;-0.23;77.39;98400.34;4956641;28;20411;-76
2024/01/17 00:08:11;;;;;;;19.13;10.63;;;;;;;-0.23;77.92;98403.75;4973375;28;20047;-76
2024/01/17 00:10:37;;;;;;;18.13;10.13;;;;;;;-0.22;77.44;98396.84;4973689;28;20054;-76
2024/01/17 00:13:04;;;;;;;27.55;11.68;;;;;;;-0.23;77.67;98390.81;4973334;28;20117;-76
2024/01/17 00:15:30;;;;;;;17.67;10.63;;;;;;;-0.22;78.00;98396.84;4973881;28;20050;-76
2024/01/17 00:17:57;;;;;;;18.88;9.90;;;;;;;-0.20;77.74;98398.50;4973494;28;20130;-76
2024/01/17 00:20:24;;;;;;;13.68;9.55;;;;;;;-0.20;77.82;98393.31;4965517;28;20492;-76
2024/01/17 00:22:50;;;;;;;16.13;9.60;;;;;;;-0.19;78.16;98387.25;4955916;28;20046;-76
2024/01/17 00:28:06;;;;;;;22.00;8.93;;;;;;;-0.16;79.39;98384.56;4972492;28;20077;-78
2024/01/17 00:30:33;;;;;;;20.10;10.90;;;;;;;-0.14;79.37;98377.56;4973476;28;20061;-78
2024/01/17 00:33:00;;;;;;;18.65;10.18;;;;;;;-0.15;78.62;98357.78;4974476;28;20058;-77
2024/01/17 00:35:26;;;;;;;18.35;10.30;;;;;;;-0.15;78.54;98352.59;4957028;28;20141;-80
2024/01/17 00:37:53;;;;;;;16.65;10.48;;;;;;;-0.16;78.13;98361.28;4974128;28;20122;-77
2024/01/17 00:40:20;;;;;;;19.42;10.25;;;;;;;-0.16;78.41;98358.69;4956346;28;20419;-78
2024/01/17 00:42:46;;;;;;;22.55;11.02;;;;;;;-0.17;78.08;98359.59;4973291;28;20102;-79
2024/01/17 00:45:13;;;;;;;24.90;10.38;;;;;;;-0.18;78.09;98360.47;4972982;28;20123;-80
2024/01/17 00:47:40;;;;;;;17.95;10.38;;;;;;;-0.20;77.57;98359.69;4972580;28;20047;-79
2024/01/17 00:50:07;;;;;;;18.98;10.27;;;;;;;-0.24;77.37;98352.09;4972991;28;20082;-77
2024/01/17 00:52:34;;;;;;;20.95;10.68;;;;;;;-0.27;77.58;98345.28;4972590;28;20051;-77
2024/01/17 00:55:01;;;;;;;21.40;9.60;;;;;;;-0.30;77.82;98332.47;4972642;28;20054;-79
2024/01/17 00:57:28;;;;;;;21.35;10.27;;;;;;;-0.32;77.27;98329.09;4972884;28;20058;-77
2024/01/17 00:59:54;;;;;;;18.65;10.65;;;;;;;-0.36;76.82;98318.03;4955011;28;20042;-80
2024/01/17 01:02:21;;;;;;;23.13;10.43;;;;;;;-0.38;77.62;98324.97;4955838;28;20055;-81
2024/01/17 01:04:48;;;;;;;17.52;10.40;;;;;;;-0.41;77.36;98325.94;4972875;28;20126;-77
2024/01/17 01:07:15;;;;;;;17.73;10.18;;;;;;;-0.42;77.79;98324.25;4973177;28;20043;-80
2024/01/17 01:09:41;;;;;;;20.55;10.82;;;;;;;-0.44;77.58;98315.69;4955466;28;20081;-79
2024/01/17 01:12:08;;;;;;;18.50;10.32;;;;;;;-0.44;77.88;98320.03;4955529;28;20556;-76
2024/01/17 01:14:35;;;;;;;17.75;10.40;;;;;;;-0.48;76.91;98319.31;4973120;28;20141;-76
2024/01/17 01:17:01;;;;;;;19.90;10.15;;;;;;;-0.50;76.87;98318.50;4955185;28;20134;-79
2024/01/17 01:19:28;;;;;;;16.33;10.15;;;;;;;-0.52;77.11;98315.16;4971848;28;20055;-79
2024/01/17 01:21:54;;;;;;;19.90;11.60;;;;;;;-0.54;77.00;98329.84;4972191;28;20051;-78
2024/01/17 01:24:22;;;;;;;17.88;10.27;;;;;;;-0.55;77.29;98330.75;4972292;28;20062;-77
2024/01/17 01:26:48;;;;;;;18.40;9.50;;;;;;;-0.56;77.04;98319.56;4972462;28;20579;-77
2024/01/17 01:29:15;;;;;;;21.63;10.93;;;;;;;-0.58;76.89;98321.38;4954723;28;20513;-76
2024/01/17 01:31:41;;;;;;;21.50;9.85;;;;;;;-0.58;77.36;98311.03;4971959;28;20074;-77
2024/01/17 01:34:08;;;;;;;17.50;9.98;;;;;;;-0.59;77.35;98306.75;4955096;28;20775;-80
2024/01/17 01:36:35;;;;;;;20.85;10.35;;;;;;;-0.59;77.08;98311.06;4972222;28;20074;-76
2024/01/17 01:39:01;;;;;;;20.17;10.73;;;;;;;-0.62;77.33;98299.09;4972015;28;20051;-77
2024/01/17 01:41:28;;;;;;;18.98;10.40;;;;;;;-0.62;76.63;98291.34;4954318;28;20113;-80
2024/01/17 01:43:55;;;;;;;20.10;9.60;;;;;;;-0.64;77.26;98284.56;4971829;28;20488;-79
2024/01/17 01:46:26;;;;;;;20.55;10.60;;;;;;;-0.68;75.82;98276.91;4972145;28;20082;-78
2024/01/17 01:48:54;;;;;;;15.90;8.83;;;;;;;-0.69;76.55;98270.06;4972078;28;20047;-78
2024/01/17 01:51:22;;;;;;;16.80;9.70;;;;;;;-0.72;76.87;98259.81;4971823;28;20066;-76
2024/01/17 01:53:52;;;;;;;16.20;9.32;;;;;;;-0.71;76.92;98265.84;4972311;28;20109;-76
2024/01/17 01:56:24;;;;;;;22.15;9.93;;;;;;;-0.73;76.31;98267.63;4972130;28;20058;-76
2024/01/17 01:58:54;;;;;;;17.33;9.38;;;;;;;-0.75;76.37;98262.50;4972446;28;20137;-78
2024/01/17 02:01:21;;;;;;;15.65;9.23;;;;;;;-0.74;76.66;98253.03;4971207;28;20058;-78
2024/01/17 02:03:48;;;;;;;17.95;10.35;;;;;;;-0.75;76.84;98247.00;4954970;28;20113;-77
2024/01/17 02:06:17;;;;;;;21.63;10.95;;;;;;;-0.77;76.53;98235.88;4955011;28;20055;-82
2024/01/17 02:08:45;;;;;;;23.42;10.27;;;;;;;-0.75;77.05;98243.59;4971875;28;20053;-78
2024/01/17 02:11:12;;;;;;;17.20;9.82;;;;;;;-0.78;75.71;98226.44;4954361;28;20074;-77
2024/01/17 02:13:40;;;;;;;18.35;8.77;;;;;;;-0.77;76.90;98230.72;4954836;28;20047;-79
2024/01/17 02:16:06;;;;;;;17.98;10.05;;;;;;;-0.77;76.83;98219.53;4954678;28;20055;-77
2024/01/17 02:18:33;;;;;;;22.48;10.40;;;;;;;-0.79;76.63;98209.25;4972007;28;20058;-77
2024/01/17 02:21:00;;;;;;;20.40;10.38;;;;;;;-0.81;76.41;98209.31;4954622;28;20825;-79
2024/01/17 02:23:28;;;;;;;19.02;9.55;;;;;;;-0.81;76.56;98211.06;4954429;28;20058;-79
2024/01/17 02:25:57;;;;;;;19.75;9.80;;;;;;;-0.82;76.34;98193.88;4954510;28;20046;-80
2024/01/17 02:28:29;;;;;;;25.85;11.35;;;;;;;-0.85;74.91;98193.97;4972084;28;20397;-78
2024/01/17 02:30:56;;;;;;;18.67;9.73;;;;;;;-0.82;76.51;98196.47;4954430;28;20102;-81
2024/01/17 02:33:22;;;;;;;18.58;10.40;;;;;;;-0.84;76.32;98186.16;4970965;28;20057;-77
2024/01/17 02:35:49;;;;;;;22.25;10.02;;;;;;;-0.84;76.62;98182.72;4954427;28;20118;-76
2024/01/17 02:38:16;;;;;;;23.40;10.80;;;;;;;-0.84;76.62;98172.41;4971702;28;20054;-80
2024/01/17 02:40:43;;;;;;;19.98;9.77;;;;;;;-0.84;76.23;98169.81;4971959;28;20047;-77
2024/01/17 02:43:09;;;;;;;19.27;10.43;;;;;;;-0.85;76.33;98161.25;4971533;28;20059;-77
2024/01/17 02:45:36;;;;;;;28.27;11.05;;;;;;;-0.87;76.46;98160.44;4971489;28;20105;-76
2024/01/17 02:48:03;;;;;;;19.45;9.88;;;;;;;-0.88;76.14;98151.00;4971404;28;20468;-78
2024/01/17 02:50:30;;;;;;;21.17;10.48;;;;;;;-0.92;76.20;98152.88;4971525;28;20055;-77
2024/01/17 02:52:57;;;;;;;18.60;10.55;;;;;;;-0.94;76.07;98146.91;4955310;28;20543;-81
2024/01/17 02:55:24;;;;;;;17.40;9.40;;;;;;;-0.95;76.41;98146.97;4975251;28;20085;-76
2024/01/17 02:57:51;;;;;;;20.40;9.80;;;;;;;-0.97;76.05;98157.34;4974903;28;20495;-77
2024/01/17 03:00:18;;;;;;;18.85;9.77;;;;;;;-0.98;76.37;98149.63;4975466;28;20134;-80
2024/01/17 03:02:45;;;;;;;21.30;10.93;;;;;;;-1.00;76.20;98135.94;4975070;28;20047;-76
2024/01/17 03:05:12;;;;;;;18.15;9.98;;;;;;;-1.02;76.48;98133.41;4974760;28;20059;-77
2024/01/17 03:07:39;;;;;;;21.40;9.55;;;;;;;-1.04;75.99;98124.91;4974613;28;20138;-77
2024/01/17 03:10:07;;;;;;;16.30;9.95;;;;;;;-1.06;76.19;98122.38;4974740;28;20539;-76
2024/01/17 03:12:34;;;;;;;21.55;9.80;;;;;;;-1.07;76.21;98125.00;4957110;28;20086;-79
2024/01/17 03:15:01;;;;;;;16.95;9.77;;;;;;;-1.09;76.30;98117.31;4974340;28;20110;-79
2024/01/17 03:17:27;;;;;;;18.48;11.20;;;;;;;-1.10;76.16;98115.63;4974423;28;20054;-76
2024/01/17 03:19:54;;;;;;;19.65;10.35;;;;;;;-1.12;76.44;98107.06;4957454;28;20562;-78
2024/01/17 03:22:20;;;;;;;22.63;10.90;;;;;;;-1.12;76.25;98111.41;4974454;28;20495;-78
2024/01/17 03:24:47;;;;;;;18.55;10.48;;;;;;;-1.12;76.23;98111.41;4957326;28;20055;-77
2024/01/17 03:27:14;;;;;;;19.33;10.77;;;;;;;-1.14;76.26;98098.56;4974028;28;20767;-81
2024/01/17 03:29:40;;;;;;;15.98;9.88;;;;;;;-1.14;76.60;98101.13;4974612;28;20145;-77
2024/01/17 03:32:07;;;;;;;20.23;11.13;;;;;;;-1.14;76.27;98100.28;4957124;28;20055;-82
2024/01/17 03:34:34;;;;;;;18.98;10.32;;;;;;;-1.15;76.30;98094.28;4957148;28;20122;-77
2024/01/17 03:37:01;;;;;;;21.10;10.55;;;;;;;-1.16;76.17;98096.94;4974354;28;20047;-77
2024/01/17 03:39:33;;;;;;;20.40;10.35;;;;;;;-1.17;76.29;98093.50;4974299;28;20059;-80
2024/01/17 03:42:00;;;;;;;20.55;10.15;;;;;;;-1.19;76.22;98088.38;4957082;28;20046;-81
2024/01/17 03:44:27;;;;;;;22.33;10.60;;;;;;;-1.19;76.69;98090.97;4957406;28;20051;-77
2024/01/17 03:46:53;;;;;;;19.27;11.40;;;;;;;-1.22;75.77;98085.06;4956934;28;20047;-76
2024/01/17 03:49:20;;;;;;;17.50;9.98;;;;;;;-1.22;76.04;98079.91;4974795;28;20118;-78
2024/01/17 03:51:46;;;;;;;21.63;10.70;;;;;;;-1.23;76.10;98073.91;4956788;28;20145;-77
2024/01/17 03:54:13;;;;;;;16.05;10.27;;;;;;;-1.23;75.75;98062.75;4973934;28;20130;-77
2024/01/17 03:56:40;;;;;;;18.35;9.98;;;;;;;-1.24;76.28;98059.31;4974282;28;20047;-77
2024/01/17 03:59:06;;;;;;;22.25;10.77;;;;;;;-1.23;75.89;98057.59;4973877;28;20141;-76
2024/01/17 04:01:41;;;;;;;21.17;10.77;;;;;;;-1.27;74.76;98051.66;4956581;28;20440;-77
2024/01/17 04:04:08;;;;;;;18.10;10.52;;;;;;;-1.26;76.14;98048.22;4973540;28;20050;-78
2024/01/17 04:06:34;;;;;;;20.95;10.77;;;;;;;-1.26;76.23;98045.63;4973902;28;20058;-77
2024/01/17 04:09:01;;;;;;;22.25;10.60;;;;;;;-1.26;76.07;98042.19;4973683;28;20106;-82
2024/01/17 04:11:28;;;;;;;22.38;10.63;;;;;;;-1.27;76.33;98043.94;4956517;28;20118;-78
2024/01/17 04:13:54;;;;;;;16.70;9.35;;;;;;;-1.26;76.25;98047.38;4973540;28;20047;-76
2024/01/17 04:16:21;;;;;;;19.92;10.35;;;;;;;-1.27;76.38;98036.19;4973994;28;20081;-77
2024/01/17 04:18:48;;;;;;;28.10;11.50;;;;;;;-1.28;76.17;98038.84;4956846;28;20055;-78
2024/01/17 04:21:19;;;;;;;19.77;10.48;;;;;;;-1.29;75.74;98035.41;4973463;28;20056;-77
2024/01/17 04:23:49;;;;;;;22.45;11.10;;;;;;;-1.29;75.78;98035.41;4973295;28;20109;-77
2024/01/17 04:26:22;;;;;;;20.42;10.35;;;;;;;-1.30;75.31;98023.41;4973417;28;20042;-77
2024/01/17 04:28:50;;;;;;;19.27;10.40;;;;;;;-1.28;76.56;98024.19;4956690;28;20057;-78
2024/01/17 04:31:24;;;;;;;18.77;10.48;;;;;;;-1.30;75.51;98015.66;4973295;28;20055;-80
2024/01/17 04:33:51;;;;;;;17.42;10.20;;;;;;;-1.29;76.27;98012.19;4973331;28;20057;-81
2024/01/17 04:36:19;;;;;;;20.65;10.55;;;;;;;-1.29;76.44;98001.84;4973231;28;20055;-77
2024/01/17 04:38:46;;;;;;;21.10;10.73;;;;;;;-1.29;76.27;97995.84;4973299;28;20042;-78
2024/01/17 04:41:14;;;;;;;18.35;10.18;;;;;;;-1.28;76.26;97995.78;4973102;28;20046;-77
2024/01/17 04:43:42;;;;;;;17.75;10.10;;;;;;;-1.28;76.46;97990.63;4955864;28;20142;-78
2024/01/17 04:46:14;;;;;;;17.08;9.65;;;;;;;-1.26;76.52;97982.81;4955850;28;20070;-81
2024/01/17 04:48:42;;;;;;;21.15;9.98;;;;;;;-1.24;76.74;97973.28;4973170;28;20080;-77
2024/01/17 04:51:10;;;;;;;19.45;9.77;;;;;;;-1.23;76.48;97978.38;4973094;28;20483;-88
2024/01/17 04:53:43;;;;;;;17.58;10.10;;;;;;;-1.22;76.14;97974.06;4973206;28;20135;-77
2024/01/17 04:56:11;;;;;;;17.33;9.80;;;;;;;-1.23;76.18;97969.81;4972962;28;20436;-78
2024/01/17 04:58:39;;;;;;;18.55;10.57;;;;;;;-1.23;76.15;97967.22;4972723;28;20054;-80
2024/01/17 05:01:05;;;;;;;20.05;10.48;;;;;;;-1.24;76.13;97968.97;4955413;28;20508;-77
2024/01/17 05:03:33;;;;;;;18.58;9.75;;;;;;;-1.26;75.98;97954.44;4972627;28;20055;-77
2024/01/17 05:06:01;;;;;;;19.60;10.35;;;;;;;-1.25;75.90;97948.34;4972433;28;20067;-79
2024/01/17 05:08:28;;;;;;;18.15;9.30;;;;;;;-1.26;75.70;97942.38;4955659;28;20053;-76
2024/01/17 05:10:55;;;;;;;25.05;9.98;;;;;;;-1.27;75.92;97932.91;4973169;28;20426;-77
2024/01/17 05:13:22;;;;;;;19.70;9.70;;;;;;;-1.28;75.30;97931.25;4972569;28;20051;-77
2024/01/17 05:15:49;;;;;;;17.88;9.85;;;;;;;-1.31;75.11;97931.34;4972928;28;20464;-76
2024/01/17 05:18:15;;;;;;;17.90;9.13;;;;;;;-1.33;75.76;97925.44;4955494;28;20043;-81
2024/01/17 05:20:42;;;;;;;14.95;9.00;;;;;;;-1.35;75.73;97924.66;4972681;28;20082;-77
2024/01/17 05:23:09;;;;;;;15.77;9.48;;;;;;;-1.37;75.91;97922.13;4972613;28;20522;-77
2024/01/17 05:25:35;;;;;;;16.67;9.43;;;;;;;-1.39;75.53;97916.16;4955991;28;20142;-83
2024/01/17 05:28:02;;;;;;;14.93;8.70;;;;;;;-1.40;75.59;97906.75;4972455;28;20110;-79
2024/01/17 05:30:29;;;;;;;17.30;9.43;;;;;;;-1.38;76.02;97902.34;4972884;28;20109;-78
2024/01/17 05:32:55;;;;;;;22.75;9.50;;;;;;;-1.39;75.63;97886.97;4955300;28;20047;-78
2024/01/17 05:35:22;;;;;;;16.08;9.05;;;;;;;-1.40;75.82;97885.25;4972132;28;20094;-83
2024/01/17 05:37:49;;;;;;;16.83;8.93;;;;;;;-1.41;75.48;97889.59;4972471;28;20109;-77
2024/01/17 05:40:16;;;;;;;18.42;9.90;;;;;;;-1.41;75.47;97883.56;4972925;28;20145;-78
2024/01/17 05:42:44;;;;;;;21.35;9.05;;;;;;;-1.41;75.95;97881.00;4972206;28;20051;-79
2024/01/17 05:45:11;;;;;;;14.82;8.35;;;;;;;-1.40;76.14;97882.66;4972308;28;20058;-78
2024/01/17 05:47:38;;;;;;;15.77;8.52;;;;;;;-1.39;75.79;97876.63;4954971;28;20436;-79
2024/01/17 05:50:09;;;;;;;15.68;7.82;;;;;;;-1.37;76.24;97864.50;4954826;28;20407;-79
2024/01/17 05:52:38;;;;;;;15.82;9.23;;;;;;;-1.37;76.29;97855.03;4973069;28;20090;-81
2024/01/17 05:55:09;;;;;;;11.35;7.43;;;;;;;-1.36;75.70;97856.69;4972146;28;20051;-82
2024/01/17 05:57:36;;;;;;;12.88;8.13;;;;;;;-1.33;76.05;97855.72;4954889;28;20057;-81
2024/01/17 06:00:10;;;;;;;14.00;8.27;;;;;;;-1.32;75.84;97845.34;4954893;28;20043;-79
2024/01/17 06:02:38;;;;;;;14.98;8.57;;;;;;;-1.30;76.06;97834.97;4955195;28;20106;-79
2024/01/17 06:05:07;;;;;;;17.33;8.88;;;;;;;-1.30;75.99;97834.97;4972193;28;20051;-79
2024/01/17 06:07:34;;;;;;;17.20;8.40;;;;;;;-1.29;75.45;97828.91;4954496;28;20051;-81
2024/01/17 06:10:01;;;;;;;17.70;9.23;;;;;;;-1.31;75.45;97823.78;4971786;28;20129;-79
2024/01/17 06:12:27;;;;;;;18.77;9.57;;;;;;;-1.33;74.84;97820.44;4972013;28;20089;-79
2024/01/17 06:14:54;;;;;;;13.90;8.80;;;;;;;-1.37;75.03;97813.72;4972487;28;20619;-81
2024/01/17 06:17:21;;;;;;;17.30;8.18;;;;;;;-1.40;75.01;97807.81;4972504;28;20058;-80
2024/01/17 06:19:47;;;;;;;16.55;8.68;;;;;;;-1.41;75.28;97801.84;4972390;28;20066;-78
2024/01/17 06:22:18;;;;;;;17.67;9.48;;;;;;;-1.46;74.18;97791.69;4955249;28;20059;-78
2024/01/17 06:24:48;;;;;;;15.95;9.18;;;;;;;-1.47;74.63;97792.59;4972160;28;20496;-80
2024/01/17 06:27:15;;;;;;;20.15;9.73;;;;;;;-1.48;75.27;97784.91;5066714;23;20054;-74
2024/01/17 06:29:42;;;;;;;19.65;10.05;;;;;;;-1.51;74.97;97788.47;4975413;28;20407;-73
2024/01/17 06:32:09;;;;;;;19.02;9.43;;;;;;;-1.52;75.22;97789.38;4958923;28;20769;-74
2024/01/17 06:34:36;;;;;;;16.38;9.13;;;;;;;-1.52;75.71;97785.94;4976125;28;20113;-75
2024/01/17 06:37:04;;;;;;;24.30;9.60;;;;;;;-1.52;75.52;97773.88;4975876;28;20059;-75
2024/01/17 06:39:31;;;;;;;20.92;9.70;;;;;;;-1.52;75.41;97781.63;4975412;28;20050;-75
2024/01/17 06:41:58;;;;;;;18.17;9.38;;;;;;;-1.50;75.60;97782.38;4975029;28;20054;-75
2024/01/17 06:44:27;;;;;;;18.92;9.43;;;;;;;-1.48;75.70;97777.16;4975128;28;20051;-75
2024/01/17 06:46:54;;;;;;;20.10;9.23;;;;;;;-1.50;75.81;97769.50;4975555;28;20050;-75
2024/01/17 06:49:20;;;;;;;16.20;8.73;;;;;;;-1.47;75.92;97765.94;4958070;28;20070;-75
2024/01/17 06:51:47;;;;;;;17.88;9.27;;;;;;;-1.47;75.63;97761.63;4974795;28;20057;-75
2024/01/17 06:54:14;;;;;;;19.58;10.35;;;;;;;-1.45;75.45;97764.16;4974918;28;20082;-75
2024/01/17 06:56:41;;;;;;;16.17;10.07;;;;;;;-1.46;75.10;97752.97;4975346;28;20054;-75
2024/01/17 06:59:08;;;;;;;19.23;10.05;;;;;;;-1.44;75.63;97758.09;4975008;28;20455;-75
2024/01/17 07:01:35;;;;;;;18.80;9.98;;;;;;;-1.45;75.08;97754.66;4974428;28;20039;-75
2024/01/17 07:04:02;;;;;;;30.63;10.45;;;;;;;-1.45;75.07;97749.50;4974716;28;20057;-75
2024/01/17 07:06:57;;;;;;;16.63;9.77;;;;;;;-1.47;74.01;97746.16;4975580;28;20047;-78
2024/01/17 07:09:28;;;;;;;18.25;9.05;;;;;;;-1.43;75.43;97746.03;4976033;28;20055;-78
2024/01/17 07:11:57;;;;;;;21.23;10.70;;;;;;;-1.43;75.35;97736.53;4958172;28;20055;-78
2024/01/17 07:14:37;;;;;;;20.35;10.13;;;;;;;-1.43;74.44;97733.13;4975455;28;20062;-78
2024/01/17 07:17:26;;;;;;;;;;;;;;;;;;;;;
2024/01/17 07:19:56;;;;;;;18.42;9.30;;;;;;;-1.39;75.03;97732.94;4974952;28;20054;-78
2024/01/17 07:22:23;;;;;;;18.05;9.55;;;;;;;-1.37;75.41;97732.88;4958059;28;20078;-78
2024/01/17 07:25:08;;;;;;;18.77;9.88;;;;;;;-1.39;73.54;97742.44;4958237;28;20112;-78
2024/01/17 07:27:48;;;;;;;17.98;10.30;;;;;;;-1.39;73.80;97743.25;4958260;28;20055;-78
2024/01/17 07:30:26;;;;;;;19.88;10.55;;;;;;;-1.38;75.14;97736.34;4975460;28;20053;-78
2024/01/17 07:33:01;;;;;;;16.85;9.80;;;;;;;-1.37;75.37;97732.88;4958161;28;20412;-78
2024/01/17 07:35:29;;;;;;;19.80;9.70;;;;;;;-1.36;75.02;97724.22;4958438;28;20047;-77
2024/01/17 07:38:02;;;;;;;17.38;10.60;;;;;;;-1.37;75.10;97727.69;4958144;28;20141;-77
2024/01/17 07:40:39;;;;;;;18.00;9.45;;;;;;;-1.36;75.34;97722.47;4958816;28;20097;-78
2024/01/17 07:43:21;;;;;;;19.58;9.98;;;;;;;-1.34;75.56;97717.25;4958952;28;20057;-78
2024/01/17 07:45:56;;;;;;;21.83;10.35;;;;;;;-1.34;75.21;97725.00;4958782;28;20058;-78
2024/01/17 07:48:35;;;;;;;20.08;10.68;;;;;;;-1.36;74.56;97714.75;4957916;28;20053;-78
2024/01/17 07:51:36;;;;;;;17.27;10.13;;;;;;;-1.33;75.49;97703.44;4957707;28;20412;-78
2024/01/17 07:54:17;;;;;;;20.08;10.70;;;;;;;-1.33;74.96;97691.38;4958578;28;20078;-78
2024/01/17 07:56:52;;;;;;;21.00;11.07;;;;;;;-1.32;75.05;97687.91;4957826;28;20105;-78
2024/01/17 07:59:31;;;;;;;19.48;10.80;;;;;;;-1.31;75.20;97680.97;4975224;28;20484;-77
2024/01/17 08:02:13;;;;;;;16.17;9.98;;;;;;;-1.31;74.27;97680.97;4957037;28;20077;-78
2024/01/17 08:05:12;;;;;;;20.38;10.52;;;;;;;-1.31;73.78;97683.56;4974997;28;20077;-78
2024/01/17 08:07:40;;;;;;;18.73;10.02;;;;;;;-1.27;75.62;97682.53;4957988;28;20043;-78
2024/01/17 08:10:23;;;;;;;26.73;12.25;;;;;;;-1.27;74.86;97669.63;4974302;28;20437;-78
2024/01/17 08:13:00;;;;;;;19.58;10.88;;;;;;;-1.26;75.13;97666.16;4957286;28;20086;-78
2024/01/17 08:15:27;;;;;;;19.90;10.30;;;;;;;-1.24;75.16;97654.00;4974498;28;20138;-78
2024/01/17 08:18:13;;;;;;;23.67;11.82;;;;;;;-1.24;74.94;97651.44;4957522;28;20046;-78
2024/01/17 08:20:55;;;;;;;23.40;12.35;;;;;;;-1.24;74.65;97648.03;4955441;28;20051;-75
2024/01/17 08:23:29;;;;;;;23.65;11.57;;;;;;;-1.24;74.38;97642.88;4972945;28;20074;-77
2024/01/17 08:26:01;;;;;;;24.52;11.98;;;;;;;-1.23;74.65;97645.34;4974418;28;20058;-77
2024/01/17 08:28:36;;;;;;;21.67;11.70;;;;;;;-1.25;73.66;97630.84;4973815;28;20058;-77
2024/01/17 08:31:14;;;;;;;26.23;12.38;;;;;;;-1.22;74.72;97618.66;4957759;28;20526;-78
2024/01/17 08:34:00;;;;;;;22.80;12.60;;;;;;;-1.22;73.57;97616.06;4957569;28;20412;-78
2024/01/17 08:36:41;;;;;;;22.73;12.27;;;;;;;-1.20;73.88;97611.66;4939253;29;20058;-78
2024/01/17 08:39:22;;;;;;;21.63;11.77;;;;;;;-1.17;75.03;97610.69;4952448;28;20077;-78
2024/01/17 08:41:50;;;;;;;23.27;12.55;;;;;;;-1.14;74.88;97607.13;4956911;28;20098;-76
2024/01/17 08:44:46;;;;;;;24.33;11.68;;;;;;;-1.12;74.95;97597.59;4956526;28;20117;-75
2024/01/17 08:47:12;;;;;;;26.20;12.23;;;;;;;-1.10;75.26;97596.63;4954605;29;20051;-75
2024/01/17 08:50:00;;;;;;;24.30;11.93;;;;;;;-1.06;75.00;97599.88;4937232;29;20052;-76
2024/01/17 08:52:40;;;;;;;22.58;11.05;;;;;;;-1.04;74.58;97598.09;4938272;29;20073;-76
2024/01/17 08:55:08;;;;;;;22.25;11.40;;;;;;;-1.01;75.08;97584.22;4954468;28;20050;-76
2024/01/17 08:57:37;;;;;;;19.70;11.38;;;;;;;-0.97;75.56;97583.97;4973506;28;20130;-76
2024/01/17 09:00:05;;;;;;;21.65;11.45;;;;;;;-0.91;75.97;97575.13;4973462;28;20117;-75
2024/01/17 09:02:32;;;;;;;21.85;11.75;;;;;;;-0.85;76.03;97579.19;4972947;28;20086;-75
2024/01/17 09:04:59;;;;;;;18.98;11.27;;;;;;;-0.80;76.36;97579.78;4973325;28;20106;-75
2024/01/17 09:07:26;;;;;;;20.20;11.82;;;;;;;-0.75;75.72;97577.84;4973059;28;20058;-75
2024/01/17 09:09:54;;;;;;;22.95;10.75;;;;;;;-0.69;75.95;97568.97;4973007;28;20419;-75
2024/01/17 09:12:22;;;;;;;20.95;11.65;;;;;;;-0.64;76.27;97572.16;4973149;28;20055;-75
2024/01/17 09:14:50;;;;;;;21.83;10.70;;;;;;;-0.57;76.47;97567.53;4973070;28;20066;-75
2024/01/17 09:17:17;;;;;;;22.88;10.63;;;;;;;-0.51;76.20;97562.09;4972640;28;20047;-75
2024/01/17 09:19:44;;;;;;;24.50;11.45;;;;;;;-0.45;75.89;97553.22;4972609;28;20062;-76
2024/01/17 09:22:10;;;;;;;20.88;11.02;;;;;;;-0.40;76.25;97544.31;4972163;28;20055;-76
2024/01/17 09:24:37;;;;;;;20.33;11.20;;;;;;;-0.34;76.57;97550.13;4972650;28;20046;-75
2024/01/17 09:27:04;;;;;;;19.25;10.80;;;;;;;-0.31;76.39;97540.47;4972110;28;20059;-75
2024/01/17 09:29:33;;;;;;;18.45;11.20;;;;;;;-0.25;75.76;97552.28;4972494;28;20125;-75
2024/01/17 09:32:00;;;;;;;19.45;11.15;;;;;;;-0.20;76.40;97552.03;4972072;28;20059;-75
2024/01/17 09:34:27;;;;;;;18.92;10.13;;;;;;;-0.15;76.37;97547.50;4972193;28;20496;-75
2024/01/17 09:36:54;;;;;;;19.48;11.18;;;;;;;-0.10;76.28;97549.84;4971882;28;20046;-75
2024/01/17 09:39:21;;;;;;;23.33;11.02;;;;;;;-0.04;76.17;97546.97;4972009;28;20057;-75
2024/01/17 09:41:48;;;;;;;16.73;9.60;;;;;;;0.01;76.81;97534.63;4954903;28;20416;-75
2024/01/17 09:44:15;;;;;;;20.30;11.02;;;;;;;0.06;76.45;97536.97;4972090;28;20542;-75
2024/01/17 09:46:45;;;;;;;18.42;10.02;;;;;;;0.11;76.10;97535.03;4972060;28;20090;-75
2024/01/17 09:49:11;;;;;;;18.13;9.57;;;;;;;0.17;76.35;97533.84;4968457;28;20046;-75
2024/01/17 09:51:38;;;;;;;24.25;10.55;;;;;;;0.22;75.83;97542.25;5350532;23;20047;-75
2024/01/17 09:54:05;;;;;;;20.30;10.50;;;;;;;0.27;76.45;97540.25;4972101;28;20062;-75
2024/01/17 09:56:34;;;;;;;15.90;9.15;;;;;;;0.31;76.45;97534.00;4972167;28;20054;-75
2024/01/17 09:59:27;;;;;;;18.13;10.25;;;;;;;0.31;72.77;97520.22;4971649;28;20134;-75
2024/01/17 10:01:55;;;;;;;22.58;9.18;;;;;;;0.41;75.87;97525.75;4971360;28;20408;-76
2024/01/17 10:04:26;;;;;;;16.88;9.25;;;;;;;0.45;76.03;97524.69;4971605;28;20086;-75
2024/01/17 10:06:55;;;;;;;15.18;9.40;;;;;;;0.49;76.68;97514.06;4972087;28;20053;-75
2024/01/17 10:09:26;;;;;;;17.10;9.40;;;;;;;0.56;76.53;97504.25;4971588;28;20059;-75
2024/01/17 10:11:53;;;;;;;18.15;10.30;;;;;;;0.61;76.18;97507.44;4971978;28;20149;-75
2024/01/17 10:14:23;;;;;;;16.38;8.95;;;;;;;0.64;75.65;97488.31;4971859;28;20050;-76
2024/01/17 10:16:51;;;;;;;19.90;9.30;;;;;;;0.69;75.68;97483.72;4971873;28;20055;-76
2024/01/17 10:19:18;;;;;;;20.50;9.40;;;;;;;0.71;75.65;97481.06;4971555;28;20109;-75
2024/01/17 10:21:45;;;;;;;17.73;9.38;;;;;;;0.73;76.22;97468.84;4971547;28;20400;-75
2024/01/17 10:24:11;;;;;;;19.80;9.73;;;;;;;0.77;76.66;97472.94;4971837;28;20059;-75
2024/01/17 10:26:41;;;;;;;19.73;9.40;;;;;;;0.81;75.84;97478.78;4971825;28;20058;-76
2024/01/17 10:29:09;;;;;;;16.35;8.32;;;;;;;0.85;76.02;97468.19;4971349;28;20058;-75
2024/01/17 10:31:39;;;;;;;16.33;9.65;;;;;;;0.89;75.74;97464.53;4971756;28;20098;-74
2024/01/17 10:34:07;;;;;;;19.85;10.07;;;;;;;0.95;76.28;97452.13;4971776;28;20061;-75
2024/01/17 10:36:39;;;;;;;18.77;10.07;;;;;;;0.97;75.47;97451.13;4971582;28;20133;-76
2024/01/17 10:39:05;;;;;;;16.45;9.30;;;;;;;1.02;75.82;97451.72;4971770;28;20055;-75
2024/01/17 10:41:32;;;;;;;15.98;9.63;;;;;;;1.07;76.18;97446.28;4971270;28;20423;-76
2024/01/17 10:44:04;;;;;;;19.08;9.30;;;;;;;1.10;75.88;97446.13;4971770;28;20066;-75
2024/01/17 10:46:31;;;;;;;14.77;8.70;;;;;;;1.12;75.27;97438.28;4971662;28;20054;-75
2024/01/17 10:48:59;;;;;;;14.98;9.60;;;;;;;1.17;76.29;97431.06;4971507;28;20097;-75
2024/01/17 10:51:26;;;;;;;15.65;9.32;;;;;;;1.19;75.94;97434.41;4971656;28;20042;-75
2024/01/17 10:53:56;;;;;;;17.50;8.60;;;;;;;1.21;75.87;97426.53;4971507;28;20046;-75
2024/01/17 10:56:26;;;;;;;14.82;9.10;;;;;;;1.24;76.57;97422.00;4971207;28;20054;-75
2024/01/17 10:58:55;;;;;;;18.02;9.65;;;;;;;1.27;76.35;97405.47;4971786;28;20459;-75
2024/01/17 11:01:31;;;;;;;18.27;9.40;;;;;;;1.30;75.38;97410.47;4971419;28;20054;-75
2024/01/17 11:04:11;;;;;;;14.50;8.80;;;;;;;1.34;75.30;97401.59;4971551;28;20130;-75
2024/01/17 11:06:39;;;;;;;17.58;9.30;;;;;;;1.38;76.10;97395.31;4971341;28;20055;-75
2024/01/17 11:09:07;;;;;;;13.13;8.65;;;;;;;1.41;76.29;97389.09;4971551;28;20114;-75
2024/01/17 11:11:35;;;;;;;15.50;9.55;;;;;;;1.42;75.23;97386.44;4971368;28;20058;-75
2024/01/17 11:14:03;;;;;;;14.98;9.18;;;;;;;1.46;75.57;97383.66;4972353;28;20081;-75
2024/01/17 11:16:32;;;;;;;19.25;9.15;;;;;;;1.47;75.92;97387.94;4974518;28;20051;-75
2024/01/17 11:18:59;;;;;;;18.73;10.02;;;;;;;1.47;75.21;97380.16;4974435;28;20566;-75
2024/01/17 11:21:26;;;;;;;17.13;9.63;;;;;;;1.49;76.08;97378.31;4974475;28;20058;-75
2024/01/17 11:24:08;;;;;;;17.95;9.10;;;;;;;1.47;74.01;97380.16;4974324;28;20050;-75
2024/01/17 11:26:46;;;;;;;14.27;8.75;;;;;;;1.48;73.91;97376.63;4974384;28;20050;-75
2024/01/17 11:29:46;;;;;;;15.07;8.95;;;;;;;1.50;73.72;97378.19;4974367;28;20058;-76
2024/01/17 11:32:29;;;;;;;16.88;8.68;;;;;;;1.57;75.51;97373.47;4974586;28;20054;-75
2024/01/17 11:34:56;;;;;;;17.63;9.48;;;;;;;1.64;77.14;97364.44;4974755;28;20110;-77
2024/01/17 11:37:38;;;;;;;15.70;8.30;;;;;;;1.68;74.90;97350.34;4974312;28;20488;-76